Kvitbjoern — LM9158 — position and weather

sailwx.info

Track history (hours):
 
Tides and Currents Weather Stations Pressure Air Temp Water Temp Dewpoint Dewpoint Depression Visibility Wind Speed Wind Dir Waves Ship Positions

Kvitbjoern

Last reported at 2014-Aug-01 17:29 UTC. Time now 2014-Aug-02 08:42 UTC.
Position N 66°22' E 012°21'.

Length 10 m.

Type: Fishing. MMSI: 257454420.

Date/timePositionNaut miles runAvg speedWind from/ knotsBaromVisibWave heightAir tempDewpointWater temp
2014-Aug-01 17:29N 66°22' E 012°21'0 0.0
2014-Aug-01 16:29N 66°22' E 012°21'  
2014-Jul-25 13:03N 66°22' E 012°21'0 0.0
2014-Jul-25 12:33N 66°22' E 012°21'2 1.6
2014-Jul-25 11:25N 66°23' E 012°17'1 1.1
2014-Jul-25 10:32N 66°24' E 012°19'1 1.3
2014-Jul-25 09:33N 66°23' E 012°21'1 0.0
2014-Jul-23 20:33N 66°22' E 012°21'0 0.0
2014-Jul-23 19:33N 66°22' E 012°21'2 1.6
2014-Jul-23 18:27N 66°24' E 012°19'2 0.6
2014-Jul-23 15:03N 66°22' E 012°18'0 0.5
2014-Jul-23 14:33N 66°22' E 012°18'1 1.2
2014-Jul-23 13:27N 66°22' E 012°21'0 0.0
2014-Jul-22 20:22N 66°22' E 012°21'2 2.4
2014-Jul-22 19:33N 66°23' E 012°25'2 1.9
2014-Jul-22 18:31N 66°22' E 012°21'0 0.0
2014-Jul-22 17:31N 66°22' E 012°21'  
Track history (hours):
 
Tides and Currents Weather Stations Pressure Air Temp Water Temp Dewpoint Dewpoint Depression Visibility Wind Speed Wind Dir Waves Ship Positions

Kvitbjoern

Last reported at 2014-Aug-01 17:29 UTC. Time now 2014-Aug-02 08:42 UTC.
Position N 66°22' E 012°21'.

Length 10 m.

Type: Fishing. MMSI: 257454420.

Date/timePositionNaut miles runAvg speedWind from/ knotsBaromVisibWave heightAir tempDewpointWater temp
2014-Aug-01 17:29N 66°22' E 012°21'0 0.0
2014-Aug-01 16:29N 66°22' E 012°21'  
2014-Jul-25 13:03N 66°22' E 012°21'0 0.0
2014-Jul-25 12:33N 66°22' E 012°21'2 1.6
2014-Jul-25 11:25N 66°23' E 012°17'1 1.1
2014-Jul-25 10:32N 66°24' E 012°19'1 1.3
2014-Jul-25 09:33N 66°23' E 012°21'1 0.0
2014-Jul-23 20:33N 66°22' E 012°21'0 0.0
2014-Jul-23 19:33N 66°22' E 012°21'2 1.6
2014-Jul-23 18:27N 66°24' E 012°19'2 0.6
2014-Jul-23 15:03N 66°22' E 012°18'0 0.5
2014-Jul-23 14:33N 66°22' E 012°18'1 1.2
2014-Jul-23 13:27N 66°22' E 012°21'0 0.0
2014-Jul-22 20:22N 66°22' E 012°21'2 2.4
2014-Jul-22 19:33N 66°23' E 012°25'2 1.9
2014-Jul-22 18:31N 66°22' E 012°21'0 0.0
2014-Jul-22 17:31N 66°22' E 012°21'  

Dump ship's entire track history